Time;durP1;ratioP1;P1;durP2;ratioP2;P2;SDS_P1;SDS_P2;PMS_P1;PMS_P2;Temp;Humidity;BMP_temperature;BMP_pressure;BME280_temperature;BME280_humidity;BME280_pressure;Samples;Min_cycle;Max_cycle;Signal;HPM_P1;HPM_P2
2023/12/02 01:13:12;;;;;;;5.50;1.67;;;23.20;78.40;;;;;;6207641;23;20100;-66
2023/12/02 01:15:39;;;;;;;4.63;1.58;;;23.20;77.80;;;;;;6184809;23;20039;-65
2023/12/02 01:18:07;;;;;;;402.95;109.47;;;23.30;78.60;;;;;;6210971;23;20003;-66
2023/12/02 01:20:34;;;;;;;552.30;143.23;;;23.30;77.90;;;;;;6206051;23;20393;-66
2023/12/02 01:23:01;;;;;;;135.23;26.67;;;23.40;77.10;;;;;;6211640;23;20008;-67
2023/12/02 01:25:28;;;;;;;;;;;23.40;77.80;;;;;;6209471;23;20843;-66
2023/12/02 01:27:54;;;;;;;;;;;23.50;78.60;;;;;;6208910;23;20363;-67
2023/12/02 01:30:22;;;;;;;344.83;85.53;;;23.60;79.20;;;;;;6183479;23;20410;-66
2023/12/02 01:32:49;;;;;;;3.50;1.73;;;23.70;76.80;;;;;;6209312;23;20898;-66
2023/12/02 01:35:16;;;;;;;511.42;118.53;;;23.70;76.10;;;;;;6235335;23;20005;-66
2023/12/02 01:37:43;;;;;;;23.38;10.50;;;23.70;76.10;;;;;;6210998;23;20008;-66
2023/12/02 01:40:12;;;;;;;4.10;1.48;;;23.60;76.70;;;;;;6211109;23;20004;-66
2023/12/02 01:42:40;;;;;;;9.10;2.10;;;23.60;76.40;;;;;;6210255;23;20012;-67
2023/12/02 01:45:08;;;;;;;10.20;2.13;;;23.60;76.90;;;;;;6211185;23;20339;-67
2023/12/02 01:47:35;;;;;;;6.57;1.85;;;23.60;77.90;;;;;;6209479;23;20008;-67
2023/12/02 01:50:03;;;;;;;6.80;2.00;;;23.60;78.40;;;;;;6209934;23;20036;-66
2023/12/02 01:52:30;;;;;;;4.57;2.13;;;23.60;77.40;;;;;;6185741;23;20008;-66
2023/12/02 01:54:58;;;;;;;8.98;2.10;;;23.50;78.30;;;;;;6184852;23;20083;-67
2023/12/02 01:57:25;;;;;;;10.70;2.17;;;23.50;77.40;;;;;;6210037;23;20020;-67
2023/12/02 01:59:55;;;;;;;6.90;2.28;;;23.50;77.40;;;;;;6210498;23;20004;-67
2023/12/02 02:02:25;;;;;;;5.88;2.45;;;23.50;77.70;;;;;;6209783;23;20043;-66
2023/12/02 02:04:52;;;;;;;7.93;2.30;;;23.50;78.50;;;;;;6210768;23;20031;-65
2023/12/02 02:07:21;;;;;;;6.70;2.20;;;23.50;79.60;;;;;;6210022;23;20001;-66
2023/12/02 02:09:49;;;;;;;10.20;2.20;;;23.60;78.80;;;;;;6210149;23;20459;-66
2023/12/02 02:12:16;;;;;;;5.57;2.10;;;23.70;78.90;;;;;;6209978;23;20044;-67
2023/12/02 02:14:43;;;;;;;8.00;2.40;;;23.80;78.60;;;;;;6209726;23;20084;-66
2023/12/02 02:17:11;;;;;;;7.22;2.13;;;23.90;78.70;;;;;;6184979;23;20051;-66
2023/12/02 02:19:38;;;;;;;7.07;2.20;;;24.10;78.50;;;;;;6209655;23;20012;-67
2023/12/02 02:22:05;;;;;;;1071.20;284.73;;;24.10;78.50;;;;;;6211295;23;20029;-66
2023/12/02 02:24:32;;;;;;;428.80;114.93;;;24.10;78.80;;;;;;6210813;23;20327;-66
2023/12/02 02:27:00;;;;;;;9.57;2.40;;;24.00;76.90;;;;;;6208895;23;20350;-67
2023/12/02 02:29:27;;;;;;;1064.32;290.10;;;24.00;77.90;;;;;;6211659;23;20305;-67
2023/12/02 02:31:54;;;;;;;881.75;227.98;;;24.00;78.10;;;;;;6209376;23;20420;-67
2023/12/02 02:34:22;;;;;;;191.93;51.80;;;24.00;77.70;;;;;;6209843;23;20381;-68
2023/12/02 02:36:49;;;;;;;6.18;2.53;;;23.90;77.60;;;;;;6233196;23;20377;-68
2023/12/02 02:39:16;;;;;;;5.35;2.13;;;23.90;78.00;;;;;;6209926;23;20035;-66
2023/12/02 02:41:44;;;;;;;125.03;33.88;;;23.90;77.50;;;;;;6210999;23;20443;-68
2023/12/02 02:44:11;;;;;;;1999.90;580.00;;;23.90;77.20;;;;;;6209275;23;20839;-68
2023/12/02 02:46:37;;;;;;;;;;;23.90;76.20;;;;;;6208915;23;20867;-68
2023/12/02 02:49:04;;;;;;;;;;;23.80;77.60;;;;;;6206802;23;20433;-67
2023/12/02 02:51:32;;;;;;;609.30;163.13;;;23.80;77.10;;;;;;6182534;23;20447;-68
2023/12/02 02:53:59;;;;;;;7.20;2.17;;;23.80;76.60;;;;;;6208784;23;20374;-68
2023/12/02 02:56:27;;;;;;;3.97;2.10;;;23.80;76.70;;;;;;6211645;23;20013;-68
2023/12/02 02:58:54;;;;;;;4.63;1.98;;;23.70;77.10;;;;;;6210624;23;20005;-67
2023/12/02 03:01:21;;;;;;;5.82;2.03;;;23.70;76.70;;;;;;6210857;23;20027;-68
2023/12/02 03:03:48;;;;;;;5.85;1.90;;;23.60;77.60;;;;;;6211213;23;20012;-76
2023/12/02 03:06:18;;;;;;;782.92;178.82;;;23.70;78.10;;;;;;6159870;23;20008;-76
2023/12/02 03:08:45;;;;;;;1439.03;361.35;;;23.60;77.80;;;;;;6158712;23;20358;-76
2023/12/02 03:11:12;;;;;;;9.15;2.50;;;23.60;77.60;;;;;;6183210;23;20408;-76
2023/12/02 03:13:39;;;;;;;3.33;1.60;;;23.60;78.30;;;;;;6208406;23;20024;-75
2023/12/02 03:16:08;;;;;;;9.80;1.60;;;23.60;79.10;;;;;;6209774;23;20011;-75
2023/12/02 03:18:35;;;;;;;3.70;1.73;;;23.60;78.60;;;;;;6207291;23;20363;-75
2023/12/02 03:21:02;;;;;;;7.00;2.28;;;23.50;79.40;;;;;;6184764;23;20466;-75
2023/12/02 03:23:29;;;;;;;7.75;1.75;;;23.50;78.70;;;;;;6160713;23;20036;-74
2023/12/02 03:25:57;;;;;;;5.45;1.52;;;23.40;78.60;;;;;;6208761;23;20008;-68
2023/12/02 03:28:24;;;;;;;3.65;1.88;;;23.40;77.70;;;;;;6210580;23;20001;-68
2023/12/02 03:30:51;;;;;;;11.20;1.70;;;23.30;79.60;;;;;;6209404;23;20087;-68
2023/12/02 03:33:19;;;;;;;4.15;1.80;;;23.30;78.30;;;;;;6210291;23;20001;-69
2023/12/02 03:35:46;;;;;;;4.85;1.80;;;23.30;78.80;;;;;;6183992;23;20608;-68
2023/12/02 03:38:13;;;;;;;5.55;1.50;;;23.30;78.10;;;;;;6210712;23;20000;-68
2023/12/02 03:40:40;;;;;;;6.10;1.42;;;23.30;78.20;;;;;;6210369;23;20036;-68
2023/12/02 03:43:08;;;;;;;4.10;1.92;;;23.20;78.10;;;;;;6210017;23;20008;-68
2023/12/02 03:45:35;;;;;;;6.45;1.60;;;23.20;78.60;;;;;;6208521;23;20444;-68
2023/12/02 03:48:02;;;;;;;5.47;1.52;;;23.20;78.40;;;;;;6183878;23;20009;-68
2023/12/02 03:50:29;;;;;;;5.55;2.13;;;23.10;78.20;;;;;;6211540;23;20005;-68
2023/12/02 03:52:57;;;;;;;7.03;1.90;;;23.10;78.30;;;;;;6208593;23;20036;-67
2023/12/02 03:55:24;;;;;;;9.07;1.75;;;23.10;79.10;;;;;;6208941;23;20373;-68
2023/12/02 03:57:51;;;;;;;4.97;1.60;;;23.10;78.50;;;;;;6209230;23;20024;-67
2023/12/02 04:00:19;;;;;;;3.92;1.70;;;23.10;80.00;;;;;;6183502;23;20016;-68
2023/12/02 04:02:46;;;;;;;4.72;1.40;;;23.20;78.80;;;;;;6209004;23;20099;-68
2023/12/02 04:05:14;;;;;;;9.35;2.10;;;23.10;78.50;;;;;;6210595;23;20078;-67
2023/12/02 04:07:42;;;;;;;8.23;1.60;;;23.00;78.00;;;;;;6159174;23;20009;-67
2023/12/02 04:10:10;;;;;;;7.82;1.88;;;23.10;78.90;;;;;;6210230;23;20036;-67
2023/12/02 04:12:37;;;;;;;6.57;2.03;;;23.20;79.10;;;;;;6184156;23;20090;-68
2023/12/02 04:15:06;;;;;;;4.72;1.73;;;23.20;78.90;;;;;;6209293;23;20004;-68
2023/12/02 04:17:33;;;;;;;5.13;1.80;;;23.20;78.50;;;;;;6209932;23;20012;-67
2023/12/02 04:20:00;;;;;;;4.10;1.70;;;23.30;80.20;;;;;;6208670;23;20084;-69
2023/12/02 04:22:29;;;;;;;4.22;1.60;;;23.20;79.30;;;;;;6207960;23;20344;-68
2023/12/02 04:24:56;;;;;;;5.60;1.77;;;23.20;78.70;;;;;;6210860;23;20005;-69
2023/12/02 04:27:23;;;;;;;4.63;2.05;;;23.20;79.50;;;;;;6212239;23;20017;-69
2023/12/02 04:29:50;;;;;;;6.40;1.70;;;23.20;79.70;;;;;;6212786;23;20436;-68
